sensor_id;sensor_type;location;lat;lon;timestamp;temperature;humidity
3896;DHT22;1963;48.804;8.358;2022-07-09T03:37:19;12.10;76.50
3896;DHT22;1963;48.804;8.358;2022-07-09T03:39:47;12.10;78.50
3896;DHT22;1963;48.804;8.358;2022-07-09T03:42:15;12.00;75.20
3896;DHT22;1963;48.804;8.358;2022-07-09T03:44:46;12.00;80.20
3896;DHT22;1963;48.804;8.358;2022-07-09T03:50:10;12.00;77.10
3896;DHT22;1963;48.804;8.358;2022-07-09T03:52:40;12.00;75.70
3896;DHT22;1963;48.804;8.358;2022-07-09T03:55:08;12.00;77.90
3896;DHT22;1963;48.804;8.358;2022-07-09T03:57:36;12.00;76.70
3896;DHT22;1963;48.804;8.358;2022-07-09T04:00:06;12.00;77.00
3896;DHT22;1963;48.804;8.358;2022-07-09T04:02:34;12.00;79.10
3896;DHT22;1963;48.804;8.358;2022-07-09T04:05:02;12.00;78.70
3896;DHT22;1963;48.804;8.358;2022-07-09T04:07:30;12.00;76.90
3896;DHT22;1963;48.804;8.358;2022-07-09T04:09:59;12.00;74.80
3896;DHT22;1963;48.804;8.358;2022-07-09T04:12:27;12.00;72.70
3896;DHT22;1963;48.804;8.358;2022-07-09T04:14:55;12.10;72.10
3896;DHT22;1963;48.804;8.358;2022-07-09T04:17:23;12.10;76.10
3896;DHT22;1963;48.804;8.358;2022-07-09T04:19:51;12.10;76.90
3896;DHT22;1963;48.804;8.358;2022-07-09T04:22:19;12.10;78.00
3896;DHT22;1963;48.804;8.358;2022-07-09T04:24:47;12.20;75.60
3896;DHT22;1963;48.804;8.358;2022-07-09T04:27:16;12.30;76.20
3896;DHT22;1963;48.804;8.358;2022-07-09T04:29:44;12.20;74.40
3896;DHT22;1963;48.804;8.358;2022-07-09T04:32:12;12.20;74.60
3896;DHT22;1963;48.804;8.358;2022-07-09T04:34:42;12.40;79.40
3896;DHT22;1963;48.804;8.358;2022-07-09T04:37:09;12.20;80.40
3896;DHT22;1963;48.804;8.358;2022-07-09T04:39:37;12.30;80.50
3896;DHT22;1963;48.804;8.358;2022-07-09T04:42:05;12.30;81.60
3896;DHT22;1963;48.804;8.358;2022-07-09T04:44:35;12.40;81.20
3896;DHT22;1963;48.804;8.358;2022-07-09T04:47:03;12.40;78.90
3896;DHT22;1963;48.804;8.358;2022-07-09T04:49:31;12.50;81.10
3896;DHT22;1963;48.804;8.358;2022-07-09T04:52:05;12.50;78.50
3896;DHT22;1963;48.804;8.358;2022-07-09T04:54:33;12.60;77.30
3896;DHT22;1963;48.804;8.358;2022-07-09T04:57:01;12.70;76.10
3896;DHT22;1963;48.804;8.358;2022-07-09T04:59:29;12.80;79.30
3896;DHT22;1963;48.804;8.358;2022-07-09T05:01:58;12.90;80.30
3896;DHT22;1963;48.804;8.358;2022-07-09T05:04:26;13.10;76.30
3896;DHT22;1963;48.804;8.358;2022-07-09T05:06:55;13.30;76.40
3896;DHT22;1963;48.804;8.358;2022-07-09T05:09:23;13.70;75.00
3896;DHT22;1963;48.804;8.358;2022-07-09T05:11:51;14.20;75.30
3896;DHT22;1963;48.804;8.358;2022-07-09T05:14:19;14.70;78.00
3896;DHT22;1963;48.804;8.358;2022-07-09T05:16:47;15.10;77.30
3896;DHT22;1963;48.804;8.358;2022-07-09T05:19:17;15.60;76.40
3896;DHT22;1963;48.804;8.358;2022-07-09T05:21:45;16.10;75.50
3896;DHT22;1963;48.804;8.358;2022-07-09T05:24:13;16.60;75.30
3896;DHT22;1963;48.804;8.358;2022-07-09T05:26:42;17.00;75.10
3896;DHT22;1963;48.804;8.358;2022-07-09T05:29:10;17.40;75.40
3896;DHT22;1963;48.804;8.358;2022-07-09T05:31:38;17.80;75.20
3896;DHT22;1963;48.804;8.358;2022-07-09T05:34:06;18.20;74.90
3896;DHT22;1963;48.804;8.358;2022-07-09T05:36:37;18.60;74.80
3896;DHT22;1963;48.804;8.358;2022-07-09T05:39:05;19.00;74.30
3896;DHT22;1963;48.804;8.358;2022-07-09T05:41:33;19.30;73.40
3896;DHT22;1963;48.804;8.358;2022-07-09T05:44:14;19.80;73.50
3896;DHT22;1963;48.804;8.358;2022-07-09T05:46:47;20.20;72.80
3896;DHT22;1963;48.804;8.358;2022-07-09T05:49:15;20.70;72.70
3896;DHT22;1963;48.804;8.358;2022-07-09T05:51:44;21.30;71.90
3896;DHT22;1963;48.804;8.358;2022-07-09T05:54:12;21.50;71.60
3896;DHT22;1963;48.804;8.358;2022-07-09T05:56:41;22.10;71.80
3896;DHT22;1963;48.804;8.358;2022-07-09T05:59:09;22.60;71.40
3896;DHT22;1963;48.804;8.358;2022-07-09T06:01:37;23.30;70.30
3896;DHT22;1963;48.804;8.358;2022-07-09T06:04:10;24.00;70.30
3896;DHT22;1963;48.804;8.358;2022-07-09T06:06:43;24.70;69.30
3896;DHT22;1963;48.804;8.358;2022-07-09T06:09:11;25.30;68.50
3896;DHT22;1963;48.804;8.358;2022-07-09T06:11:39;25.70;64.80
3896;DHT22;1963;48.804;8.358;2022-07-09T06:14:07;25.70;67.50
3896;DHT22;1963;48.804;8.358;2022-07-09T06:16:39;25.70;65.30
3896;DHT22;1963;48.804;8.358;2022-07-09T06:19:08;25.80;64.90
3896;DHT22;1963;48.804;8.358;2022-07-09T06:21:36;26.10;65.60
3896;DHT22;1963;48.804;8.358;2022-07-09T06:24:05;26.60;65.10
3896;DHT22;1963;48.804;8.358;2022-07-09T06:44:56;28.70;55.60
3896;DHT22;1963;48.804;8.358;2022-07-09T06:47:24;29.30;59.70
3896;DHT22;1963;48.804;8.358;2022-07-09T06:49:52;29.80;59.70
3896;DHT22;1963;48.804;8.358;2022-07-09T06:52:20;30.20;57.10
3896;DHT22;1963;48.804;8.358;2022-07-09T06:54:48;30.40;56.00
3896;DHT22;1963;48.804;8.358;2022-07-09T06:57:16;31.10;54.30
3896;DHT22;1963;48.804;8.358;2022-07-09T06:59:45;31.50;56.00
3896;DHT22;1963;48.804;8.358;2022-07-09T07:02:15;32.20;56.00
3896;DHT22;1963;48.804;8.358;2022-07-09T07:04:44;32.70;53.70
3896;DHT22;1963;48.804;8.358;2022-07-09T07:07:12;33.40;52.60
3896;DHT22;1963;48.804;8.358;2022-07-09T07:09:40;33.90;51.00
3896;DHT22;1963;48.804;8.358;2022-07-09T07:12:11;34.00;44.60
3896;DHT22;1963;48.804;8.358;2022-07-09T07:14:39;34.60;46.80
3896;DHT22;1963;48.804;8.358;2022-07-09T07:17:09;35.30;51.30
3896;DHT22;1963;48.804;8.358;2022-07-09T07:19:38;36.00;51.00
3896;DHT22;1963;48.804;8.358;2022-07-09T07:22:07;36.50;51.60
3896;DHT22;1963;48.804;8.358;2022-07-09T07:24:35;36.70;44.70
3896;DHT22;1963;48.804;8.358;2022-07-09T07:27:03;37.10;47.10
3896;DHT22;1963;48.804;8.358;2022-07-09T07:29:31;37.60;48.90
3896;DHT22;1963;48.804;8.358;2022-07-09T07:31:59;38.00;45.80
3896;DHT22;1963;48.804;8.358;2022-07-09T07:34:30;38.60;44.40
3896;DHT22;1963;48.804;8.358;2022-07-09T07:36:59;38.90;44.60
3896;DHT22;1963;48.804;8.358;2022-07-09T07:39:27;39.00;35.90
3896;DHT22;1963;48.804;8.358;2022-07-09T07:41:55;39.40;42.20
3896;DHT22;1963;48.804;8.358;2022-07-09T07:44:26;39.60;40.50
3896;DHT22;1963;48.804;8.358;2022-07-09T07:46:56;39.90;40.30
3896;DHT22;1963;48.804;8.358;2022-07-09T07:49:24;40.40;38.30
3896;DHT22;1963;48.804;8.358;2022-07-09T07:51:52;40.30;37.20
3896;DHT22;1963;48.804;8.358;2022-07-09T07:54:21;40.60;39.80
3896;DHT22;1963;48.804;8.358;2022-07-09T07:56:50;41.00;40.50
3896;DHT22;1963;48.804;8.358;2022-07-09T07:59:18;41.20;36.90
3896;DHT22;1963;48.804;8.358;2022-07-09T08:01:46;41.40;36.70
3896;DHT22;1963;48.804;8.358;2022-07-09T13:42:06;31.00;40.10
3896;DHT22;1963;48.804;8.358;2022-07-09T13:44:35;31.00;40.80
3896;DHT22;1963;48.804;8.358;2022-07-09T13:47:03;30.90;40.00
3896;DHT22;1963;48.804;8.358;2022-07-09T13:49:33;31.10;40.00
3896;DHT22;1963;48.804;8.358;2022-07-09T13:52:02;31.00;41.60
3896;DHT22;1963;48.804;8.358;2022-07-09T13:54:33;30.90;40.70
3896;DHT22;1963;48.804;8.358;2022-07-09T13:57:02;30.90;40.80
3896;DHT22;1963;48.804;8.358;2022-07-09T13:59:33;30.90;40.50
3896;DHT22;1963;48.804;8.358;2022-07-09T14:02:01;31.00;40.50
3896;DHT22;1963;48.804;8.358;2022-07-09T14:04:30;31.20;40.50
3896;DHT22;1963;48.804;8.358;2022-07-09T14:06:58;31.20;40.50
3896;DHT22;1963;48.804;8.358;2022-07-09T14:09:26;31.10;40.30
3896;DHT22;1963;48.804;8.358;2022-07-09T14:11:54;31.30;40.70
3896;DHT22;1963;48.804;8.358;2022-07-09T14:14:22;31.20;39.20
3896;DHT22;1963;48.804;8.358;2022-07-09T14:16:53;31.20;39.40
3896;DHT22;1963;48.804;8.358;2022-07-09T14:19:21;31.20;39.20
3896;DHT22;1963;48.804;8.358;2022-07-09T14:21:49;31.10;38.60
3896;DHT22;1963;48.804;8.358;2022-07-09T14:24:20;30.60;39.00
3896;DHT22;1963;48.804;8.358;2022-07-09T14:26:48;30.60;40.80
3896;DHT22;1963;48.804;8.358;2022-07-09T14:29:16;30.60;40.40
3896;DHT22;1963;48.804;8.358;2022-07-09T14:31:49;30.60;40.20
3896;DHT22;1963;48.804;8.358;2022-07-09T14:34:19;30.60;40.40
3896;DHT22;1963;48.804;8.358;2022-07-09T14:36:50;30.40;40.70
3896;DHT22;1963;48.804;8.358;2022-07-09T14:39:18;30.30;40.60
3896;DHT22;1963;48.804;8.358;2022-07-09T14:41:48;30.30;40.60
3896;DHT22;1963;48.804;8.358;2022-07-09T14:44:16;30.30;40.60
3896;DHT22;1963;48.804;8.358;2022-07-09T14:46:58;30.30;40.80
3896;DHT22;1963;48.804;8.358;2022-07-09T19:34:58;23.70;55.60
3896;DHT22;1963;48.804;8.358;2022-07-09T19:37:29;23.70;57.90
3896;DHT22;1963;48.804;8.358;2022-07-09T19:39:58;23.60;58.30
3896;DHT22;1963;48.804;8.358;2022-07-09T19:42:26;23.40;56.20
3896;DHT22;1963;48.804;8.358;2022-07-09T19:45:00;23.40;58.60
3896;DHT22;1963;48.804;8.358;2022-07-09T20:28:32;22.40;59.90
3896;DHT22;1963;48.804;8.358;2022-07-09T20:31:00;22.30;59.40
3896;DHT22;1963;48.804;8.358;2022-07-09T20:33:31;22.30;59.80
3896;DHT22;1963;48.804;8.358;2022-07-09T20:36:09;22.10;59.70
3896;DHT22;1963;48.804;8.358;2022-07-09T20:38:37;22.40;59.10
3896;DHT22;1963;48.804;8.358;2022-07-09T20:56:05;22.20;57.00
3896;DHT22;1963;48.804;8.358;2022-07-09T20:58:34;22.10;56.30
3896;DHT22;1963;48.804;8.358;2022-07-09T21:01:05;22.10;56.70
3896;DHT22;1963;48.804;8.358;2022-07-09T21:03:34;22.20;55.60
3896;DHT22;1963;48.804;8.358;2022-07-09T21:06:05;22.20;59.20
3896;DHT22;1963;48.804;8.358;2022-07-09T21:08:38;22.10;56.60
3896;DHT22;1963;48.804;8.358;2022-07-09T21:11:15;22.10;58.70
3896;DHT22;1963;48.804;8.358;2022-07-09T21:13:43;22.10;56.70
3896;DHT22;1963;48.804;8.358;2022-07-09T21:16:18;22.20;57.60
3896;DHT22;1963;48.804;8.358;2022-07-09T21:19:06;22.10;58.10
3896;DHT22;1963;48.804;8.358;2022-07-09T21:21:37;22.00;58.50
3896;DHT22;1963;48.804;8.358;2022-07-09T21:24:08;22.10;56.30
3896;DHT22;1963;48.804;8.358;2022-07-09T21:26:37;22.00;56.00
